Time;durP1;ratioP1;P1;durP2;ratioP2;P2;SDS_P1;SDS_P2;PMS_P1;PMS_P2;Temp;Humidity;BMP_temperature;BMP_pressure;BME280_temperature;BME280_humidity;BME280_pressure;Samples;Min_cycle;Max_cycle;Signal;HPM_P1;HPM_P2
2022/09/21 00:01:26;;;;;;;6.60;3.30;;;9.30;77.50;;;7.92;100.00;96739.25;4960665;28;20074;-71
2022/09/21 00:03:58;;;;;;;5.03;2.90;;;9.20;77.60;;;7.84;100.00;96734.81;4961453;28;20063;-71
2022/09/21 00:06:26;;;;;;;6.15;2.92;;;9.20;77.50;;;7.81;100.00;96740.38;4944856;28;20047;-71
2022/09/21 00:08:52;;;;;;;6.57;2.90;;;9.10;77.60;;;7.76;100.00;96737.41;4944617;28;20318;-71
2022/09/21 00:11:23;;;;;;;3.90;2.22;;;9.10;77.80;;;7.73;100.00;96732.47;4958940;28;20027;-72
2022/09/21 00:14:06;;;;;;;4.85;1.95;;;9.10;77.90;;;7.70;100.00;96731.97;4940324;28;20398;-71
2022/09/21 00:16:31;;;;;;;5.13;2.15;;;9.10;78.00;;;7.64;100.00;96728.16;4970963;28;20091;-71
2022/09/21 00:18:57;;;;;;;3.35;1.73;;;9.00;77.90;;;7.60;100.00;96737.31;4969802;28;20043;-71
2022/09/21 00:21:24;;;;;;;4.35;2.00;;;8.90;78.00;;;7.56;100.00;96730.75;4935507;28;20054;-71
2022/09/21 00:23:50;;;;;;;3.65;1.98;;;8.90;78.20;;;7.52;100.00;96737.28;4958653;28;20039;-72
2022/09/21 00:26:18;;;;;;;3.22;2.00;;;8.80;78.20;;;7.49;100.00;96733.16;4971016;28;20046;-71
2022/09/21 00:28:44;;;;;;;3.17;2.22;;;8.80;78.10;;;7.44;100.00;96727.53;4968210;28;20506;-71
2022/09/21 00:31:13;;;;;;;5.38;2.42;;;8.80;78.30;;;7.41;100.00;96733.09;4948503;28;20093;-72
2022/09/21 00:33:39;;;;;;;6.35;2.70;;;8.80;78.20;;;7.36;100.00;96736.19;4945734;28;20648;-72
2022/09/21 00:36:07;;;;;;;4.82;2.55;;;8.70;78.30;;;7.33;100.00;96733.88;4961935;28;20061;-72
2022/09/21 00:38:33;;;;;;;4.47;2.72;;;8.80;78.10;;;7.33;100.00;96735.66;4965515;28;20050;-71
2022/09/21 00:40:59;;;;;;;3.25;2.17;;;8.70;78.00;;;7.31;100.00;96738.44;4954522;28;20537;-72
2022/09/21 00:43:25;;;;;;;4.05;2.20;;;8.70;78.20;;;7.30;100.00;96735.97;4944940;28;20145;-72
2022/09/21 00:46:02;;;;;;;4.50;2.47;;;8.70;78.00;;;7.27;100.00;96744.94;4962629;28;20042;-71
2022/09/21 00:48:28;;;;;;;6.07;2.35;;;8.70;77.90;;;7.23;100.00;96730.50;4942789;28;20120;-71
2022/09/21 00:50:56;;;;;;;5.72;2.83;;;8.70;77.90;;;7.23;100.00;96740.97;4943438;28;20031;-72
2022/09/21 00:53:21;;;;;;;4.53;2.90;;;8.70;77.80;;;7.25;100.00;96746.09;4974217;28;20050;-72
2022/09/21 00:55:50;;;;;;;3.65;2.40;;;8.70;77.90;;;7.26;100.00;96738.09;4962308;28;20042;-71
2022/09/21 00:58:23;;;;;;;4.57;2.33;;;8.70;77.80;;;7.24;100.00;96737.41;4993107;28;20031;-71
2022/09/21 01:00:48;;;;;;;3.53;1.83;;;8.70;77.80;;;7.23;100.00;96740.97;4946502;28;20073;-71
2022/09/21 01:03:14;;;;;;;3.70;1.77;;;8.70;77.80;;;7.25;100.00;96749.53;4955572;28;20490;-71
2022/09/21 01:05:40;;;;;;;6.22;2.55;;;8.80;77.60;;;7.25;100.00;96746.91;4955007;28;20137;-71
2022/09/21 01:08:06;;;;;;;4.40;1.98;;;8.70;77.60;;;7.25;100.00;96749.53;4961972;28;20100;-71
2022/09/21 01:11:24;;;;;;;3.55;1.90;;;8.70;77.50;;;7.26;100.00;96738.09;4946765;28;20138;-71
2022/09/21 01:14:22;;;;;;;3.85;2.05;;;8.70;77.60;;;7.26;100.00;96740.69;5032598;28;20528;-72
2022/09/21 01:17:32;;;;;;;4.53;2.20;;;8.70;77.60;;;7.22;100.00;96741.94;5013769;28;20075;-71
2022/09/21 01:20:41;;;;;;;3.45;2.25;;;8.70;77.60;;;7.18;100.00;96740.63;4987317;28;20056;-72
2022/09/21 01:23:56;;;;;;;5.10;1.85;;;8.60;77.50;;;7.16;100.00;96744.38;4953683;28;20058;-71
2022/09/21 01:26:38;;;;;;;4.80;2.60;;;8.60;77.70;;;7.13;100.00;96736.81;4961085;28;20039;-71
2022/09/21 01:29:18;;;;;;;2.97;1.90;;;8.60;77.80;;;7.13;100.00;96740.25;4959169;28;20490;-71
2022/09/21 01:32:02;;;;;;;5.37;2.40;;;8.60;77.80;;;7.09;100.00;96738.09;4945906;28;20046;-71
2022/09/21 01:34:42;;;;;;;3.90;1.98;;;8.60;77.60;;;7.07;100.00;96740.88;4961284;28;20530;-70
2022/09/21 01:37:17;;;;;;;3.90;1.90;;;8.60;77.80;;;7.02;100.00;96732.66;4962515;28;20035;-71
2022/09/21 01:39:45;;;;;;;4.82;2.28;;;8.60;77.60;;;7.02;100.00;96732.66;4920456;28;20039;-71
2022/09/21 01:42:11;;;;;;;3.78;2.10;;;8.50;77.50;;;7.02;100.00;96743.13;4935032;28;20122;-71
2022/09/21 01:44:38;;;;;;;4.50;2.10;;;8.40;77.60;;;6.99;100.00;96738.16;4942313;28;20039;-71
2022/09/21 01:47:04;;;;;;;2.90;1.80;;;8.40;77.80;;;6.98;100.00;96747.00;4940193;28;20541;-71
2022/09/21 01:49:35;;;;;;;4.30;1.80;;;8.40;78.10;;;6.96;100.00;96743.69;4940698;28;20455;-72
2022/09/21 01:52:12;;;;;;;;;;;8.40;78.20;;;6.92;100.00;96737.97;4958727;28;20035;-71
2022/09/21 01:54:47;;;;;;;5.10;2.65;;;8.40;78.30;;;6.89;100.00;96732.22;4955776;28;20681;-71
2022/09/21 01:57:33;;;;;;;4.32;1.95;;;8.30;78.50;;;6.87;100.00;96737.59;4937755;28;20039;-72
2022/09/21 01:59:59;;;;;;;3.88;2.17;;;8.40;78.40;;;6.86;100.00;96733.34;4937563;28;20039;-71
2022/09/21 02:02:36;;;;;;;5.50;2.65;;;8.30;78.40;;;6.84;100.00;96739.69;4943113;28;20036;-72
2022/09/21 02:05:03;;;;;;;4.00;2.10;;;8.30;78.40;;;6.82;100.00;96734.63;4938911;28;20519;-71
2022/09/21 02:07:29;;;;;;;5.20;2.28;;;8.30;78.30;;;6.81;100.00;96734.75;4948011;28;20466;-71
2022/09/21 02:09:55;;;;;;;4.82;2.45;;;8.30;78.10;;;6.77;100.00;96739.44;4958796;28;20027;-71
2022/09/21 02:12:21;;;;;;;3.00;2.17;;;8.30;78.30;;;6.75;100.00;96730.94;4906958;28;20406;-71
2022/09/21 02:14:48;;;;;;;5.88;2.10;;;8.20;78.10;;;6.73;100.00;96733.69;4972153;28;22288;-71
2022/09/21 02:18:01;;;;;;;4.30;2.10;;;8.20;78.00;;;6.70;100.00;96728.78;4932599;28;20136;-71
2022/09/21 02:20:31;;;;;;;4.80;2.30;;;8.20;77.80;;;6.66;100.00;96727.44;4981510;28;20100;-70
2022/09/21 02:23:17;;;;;;;25.63;16.85;;;8.20;78.60;;;6.68;100.00;96735.94;4940741;28;20035;-71
2022/09/21 02:26:12;;;;;;;29.65;18.83;;;8.10;79.00;;;6.65;100.00;96733.63;4956444;28;20050;-71
2022/09/21 02:28:46;;;;;;;14.82;9.80;;;8.20;79.10;;;6.62;100.00;96730.50;4990177;28;20030;-71
2022/09/21 02:31:25;;;;;;;15.23;8.07;;;8.10;78.90;;;6.60;100.00;96735.88;4956040;28;20599;-71
2022/09/21 02:34:08;;;;;;;17.48;12.60;;;8.10;78.40;;;6.60;100.00;96727.22;4948408;28;20065;-71
2022/09/21 02:36:57;;;;;;;8.30;5.40;;;8.20;78.50;;;6.58;100.00;96727.38;4961571;28;20041;-70
2022/09/21 02:40:06;;;;;;;6.05;2.92;;;8.10;78.10;;;6.57;100.00;96733.56;4939937;28;20039;-70
2022/09/21 02:42:33;;;;;;;4.72;3.10;;;8.10;77.80;;;6.49;100.00;96733.47;4945640;28;20035;-70
2022/09/21 02:45:08;;;;;;;4.55;2.60;;;8.00;78.00;;;6.50;100.00;96740.31;4938742;28;20453;-71
2022/09/21 02:47:41;;;;;;;7.40;2.60;;;8.00;78.00;;;6.48;100.00;96744.88;4963199;28;20054;-70
2022/09/21 02:50:11;;;;;;;5.38;2.50;;;7.90;77.90;;;6.43;100.00;96747.13;4921668;28;20582;-71
2022/09/21 02:52:39;;;;;;;6.45;2.20;;;7.80;77.90;;;6.38;100.00;96749.38;4950262;28;20042;-71
2022/09/21 02:55:05;;;;;;;2.92;2.10;;;7.80;78.10;;;6.35;100.00;96752.28;4953915;28;20035;-71
2022/09/21 02:57:31;;;;;;;5.22;2.10;;;7.80;78.20;;;6.31;100.00;96748.28;4971197;28;20042;-70
2022/09/21 02:59:56;;;;;;;4.20;2.40;;;7.80;78.30;;;6.24;100.00;96742.00;4958515;28;20046;-70
2022/09/21 03:02:22;;;;;;;6.40;3.65;;;7.70;78.00;;;6.23;100.00;96746.41;4946166;28;20081;-71
2022/09/21 03:04:48;;;;;;;14.07;8.43;;;7.70;78.00;;;6.23;100.00;96756.03;4976893;28;20042;-71
2022/09/21 03:07:15;;;;;;;18.17;11.75;;;7.70;78.20;;;6.19;100.00;96750.28;4916766;28;20039;-71
2022/09/21 03:09:40;;;;;;;5.55;3.60;;;7.70;78.00;;;6.13;100.00;96738.66;4945082;28;20060;-72
2022/09/21 03:12:06;;;;;;;8.82;5.07;;;7.60;77.90;;;6.12;100.00;96750.06;4968309;28;20112;-71
2022/09/21 03:14:32;;;;;;;9.63;6.22;;;7.70;78.30;;;6.13;100.00;96751.69;4966445;28;20031;-70
2022/09/21 03:16:59;;;;;;;6.47;4.13;;;7.60;78.00;;;6.09;100.00;96754.72;4953364;28;20054;-71
2022/09/21 03:19:25;;;;;;;10.75;6.57;;;7.60;78.00;;;6.06;100.00;96755.84;4943823;28;20137;-71
2022/09/21 03:21:51;;;;;;;24.67;15.75;;;7.60;77.80;;;6.03;100.00;96750.91;4963802;28;20031;-71
2022/09/21 03:24:44;;;;;;;34.42;20.48;;;7.60;77.70;;;5.98;100.00;96745.31;4955400;28;20109;-71
2022/09/21 03:27:03;;;;;;;6.93;4.43;;;7.60;78.00;;;6.00;100.00;96753.00;4959671;28;20039;-71
2022/09/21 03:29:28;;;;;;;5.63;2.60;;;7.60;77.90;;;5.99;100.00;96753.97;4973446;28;20039;-71
2022/09/21 03:31:54;;;;;;;3.45;2.00;;;7.60;77.80;;;5.95;100.00;96752.59;4965005;28;20049;-70
2022/09/21 03:34:20;;;;;;;4.32;1.85;;;7.60;77.80;;;5.92;100.00;96748.50;4951108;28;20037;-71
2022/09/21 03:36:47;;;;;;;3.97;2.13;;;7.50;78.00;;;5.91;100.00;96749.47;4960239;28;20398;-72
2022/09/21 03:39:13;;;;;;;2.33;1.83;;;7.40;78.00;;;5.91;100.00;96751.25;4975122;28;20034;-71
2022/09/21 03:41:39;;;;;;;2.90;1.90;;;7.50;77.90;;;5.89;100.00;96753.97;4927053;28;20039;-71
2022/09/21 03:44:05;;;;;;;3.25;2.08;;;7.40;78.00;;;5.85;100.00;96742.16;4989005;28;20038;-71
2022/09/21 03:46:34;;;;;;;4.82;2.15;;;7.30;78.10;;;5.83;100.00;96744.91;4957335;28;20449;-70
2022/09/21 03:49:01;;;;;;;4.35;2.25;;;7.40;78.30;;;5.81;100.00;96751.25;4961982;28;20031;-71
2022/09/21 03:51:26;;;;;;;4.40;2.47;;;7.30;78.50;;;5.80;100.00;96750.44;4966765;28;20912;-71
2022/09/21 03:53:52;;;;;;;4.20;2.88;;;7.30;78.60;;;5.77;100.00;96748.09;4943990;28;20047;-73
2022/09/21 03:56:18;;;;;;;5.45;2.90;;;7.30;78.70;;;5.76;100.00;96743.03;4968315;28;20043;-73
2022/09/21 03:58:43;;;;;;;6.38;2.70;;;7.30;78.90;;;5.75;100.00;96746.59;4964458;28;20031;-72
2022/09/21 04:01:09;;;;;;;4.68;2.38;;;7.30;78.70;;;5.77;100.00;96755.13;4966865;28;20564;-73
2022/09/21 04:03:36;;;;;;;5.60;2.58;;;7.30;78.70;;;5.73;100.00;96751.16;4946312;28;20065;-69
2022/09/21 04:06:10;;;;;;;3.50;2.33;;;7.30;78.80;;;5.72;100.00;96759.94;4959948;28;20469;-70
2022/09/21 04:08:37;;;;;;;5.13;2.33;;;7.30;78.60;;;5.72;100.00;96759.94;4917566;28;20043;-68
2022/09/21 04:11:21;;;;;;;9.48;5.45;;;7.30;78.60;;;5.71;100.00;96760.91;4975284;28;20112;-72
2022/09/21 04:13:56;;;;;;;10.10;5.97;;;7.30;78.60;;;5.69;100.00;96749.78;4965073;28;20042;-66
2022/09/21 04:16:25;;;;;;;8.57;3.60;;;7.30;78.60;;;5.67;100.00;96759.56;4951289;28;20379;-67
2022/09/21 04:18:51;;;;;;;6.15;3.05;;;7.10;78.30;;;5.66;100.00;96763.94;4966683;28;20038;-71
2022/09/21 04:21:18;;;;;;;5.20;3.38;;;7.20;78.30;;;5.62;100.00;96765.19;4949466;28;20031;-72
2022/09/21 04:23:43;;;;;;;4.05;2.65;;;7.20;78.70;;;5.59;100.00;96767.25;4991029;28;20029;-72
2022/09/21 04:26:28;;;;;;;6.88;2.92;;;7.10;78.60;;;5.58;100.00;96765.59;4974163;28;20046;-73
2022/09/21 04:28:54;;;;;;;6.32;3.70;;;7.10;78.60;;;5.54;100.00;96770.28;4983934;28;20036;-72
2022/09/21 04:31:20;;;;;;;8.68;4.43;;;7.00;78.80;;;5.49;100.00;96773.34;4957306;28;20038;-73
2022/09/21 04:33:54;;;;;;;6.35;3.92;;;7.00;78.70;;;5.46;100.00;96773.63;4978703;28;20039;-73
2022/09/21 04:36:20;;;;;;;6.38;2.85;;;6.90;78.80;;;5.44;100.00;96774.72;5003671;28;20441;-72
2022/09/21 04:38:46;;;;;;;4.13;2.40;;;6.90;78.70;;;5.41;100.00;96773.19;5028249;28;20049;-73
2022/09/21 04:41:12;;;;;;;2.80;2.25;;;7.00;78.50;;;5.34;100.00;96769.50;4945854;28;20424;-73
2022/09/21 04:43:46;;;;;;;12.52;7.85;;;6.90;78.40;;;5.38;100.00;96775.25;4950068;28;20525;-73
2022/09/21 04:46:14;;;;;;;16.52;9.43;;;6.90;79.00;;;5.38;100.00;96776.09;4953478;28;20046;-74
2022/09/21 04:48:40;;;;;;;5.05;3.05;;;7.00;79.10;;;5.37;100.00;96784.06;4948424;28;20059;-73
2022/09/21 04:51:09;;;;;;;6.13;3.67;;;6.90;77.90;;;5.31;100.00;96772.41;4964465;28;20787;-74
2022/09/21 04:53:35;;;;;;;5.60;3.90;;;6.90;78.20;;;5.33;100.00;96783.50;4933705;28;20031;-73
2022/09/21 04:56:02;;;;;;;11.35;6.18;;;6.90;78.40;;;5.31;100.00;96785.44;4952497;28;20035;-74
2022/09/21 04:58:28;;;;;;;14.05;8.05;;;6.90;78.40;;;5.30;100.00;96789.00;4936798;28;20054;-74
2022/09/21 05:00:55;;;;;;;18.33;9.90;;;6.80;78.60;;;5.29;100.00;96791.75;4948592;28;20113;-74
2022/09/21 05:03:21;;;;;;;15.00;7.15;;;6.80;79.00;;;5.27;100.00;96799.72;4970087;28;20043;-74
2022/09/21 05:05:53;;;;;;;12.02;5.80;;;6.80;79.00;;;5.26;100.00;96795.47;4988231;28;20038;-73
2022/09/21 05:10:01;;;;;;;11.63;5.82;;;6.80;79.30;;;5.23;100.00;96795.75;4993908;28;20046;-67
2022/09/21 05:11:05;;;;;;;14.07;5.53;;;6.80;79.20;;;5.22;100.00;96801.94;4964134;28;20038;-67
2022/09/21 05:13:31;;;;;;;14.10;6.75;;;6.80;79.00;;;5.20;100.00;96799.47;4971713;28;20036;-66
2022/09/21 05:15:57;;;;;;;16.77;8.82;;;6.80;79.00;;;5.20;100.00;96806.44;4966672;28;20030;-67
2022/09/21 05:18:23;;;;;;;16.50;9.05;;;6.80;79.10;;;5.18;100.00;96805.75;4942963;28;20042;-69
2022/09/21 05:20:59;;;;;;;15.50;7.30;;;6.80;79.20;;;5.18;100.00;96806.56;4989979;28;20033;-73
2022/09/21 05:23:25;;;;;;;15.68;7.97;;;6.80;79.10;;;5.20;100.00;96807.28;4980479;28;20081;-71
2022/09/21 05:25:51;;;;;;;13.60;7.47;;;6.90;79.00;;;5.18;100.00;96801.34;4965329;28;20035;-66
2022/09/21 05:28:17;;;;;;;12.57;6.63;;;6.80;78.90;;;5.20;100.00;96814.25;4949453;28;20081;-72
2022/09/21 05:30:45;;;;;;;10.05;5.78;;;6.90;79.10;;;5.22;100.00;96812.38;4944544;28;20043;-68
2022/09/21 05:33:12;;;;;;;9.52;5.30;;;6.80;78.90;;;5.21;100.00;96806.31;4934608;28;20589;-67
2022/09/21 05:36:06;;;;;;;9.90;5.45;;;6.90;79.00;;;5.23;100.00;96812.22;4973981;28;20440;-66
2022/09/21 05:38:32;;;;;;;8.10;4.75;;;6.90;79.00;;;5.23;100.00;96814.00;4948879;28;20045;-67
2022/09/21 05:40:58;;;;;;;6.70;4.70;;;6.90;79.10;;;5.26;100.00;96816.34;4963850;28;20045;-65
2022/09/21 05:43:24;;;;;;;7.80;4.47;;;7.00;79.10;;;5.28;100.00;96819.63;4955289;28;20042;-67
2022/09/21 05:45:56;;;;;;;6.45;4.38;;;7.00;79.30;;;5.27;100.00;96815.38;4949498;28;20035;-67
2022/09/21 05:48:30;;;;;;;4.00;3.20;;;7.00;79.80;;;5.29;100.00;96813.44;4940857;28;20044;-67
2022/09/21 05:51:04;;;;;;;5.45;2.75;;;7.10;79.80;;;5.33;100.00;96820.03;4946854;28;20058;-66
2022/09/21 05:54:19;;;;;;;3.05;2.45;;;7.10;79.70;;;5.36;100.00;96822.34;4963114;28;20073;-63
2022/09/21 05:56:59;;;;;;;3.65;2.30;;;7.10;79.50;;;5.36;100.00;96830.19;4975794;28;20122;-63
2022/09/21 05:59:57;;;;;;;3.65;2.35;;;7.10;79.90;;;5.37;100.00;96824.00;4999856;28;20122;-64
2022/09/21 06:03:06;;;;;;;5.00;2.63;;;7.10;80.20;;;5.43;100.00;96825.22;4967672;28;20060;-64
2022/09/21 06:05:32;;;;;;;5.22;2.90;;;7.20;80.40;;;5.46;100.00;96825.81;4962658;28;20046;-63
2022/09/21 06:07:57;;;;;;;5.50;2.90;;;7.30;80.70;;;5.50;100.00;96821.13;4949833;28;20043;-62
2022/09/21 06:10:31;;;;;;;5.38;2.97;;;7.30;80.90;;;5.56;100.00;96824.94;4956511;28;20100;-64
2022/09/21 06:12:57;;;;;;;4.30;2.85;;;7.40;81.00;;;5.58;100.00;96823.03;4954528;28;20049;-66
2022/09/21 06:15:23;;;;;;;7.32;3.53;;;7.50;80.90;;;5.66;100.00;96830.97;4966201;28;20030;-65
2022/09/21 06:17:49;;;;;;;5.82;3.47;;;7.60;81.10;;;5.72;100.00;96830.41;4948436;28;20035;-61
2022/09/21 06:20:14;;;;;;;4.32;3.20;;;7.60;81.10;;;5.78;100.00;96832.47;4991976;28;20093;-66
2022/09/21 06:22:40;;;;;;;5.70;3.20;;;7.70;81.00;;;5.84;100.00;96831.88;4958606;28;20695;-64
2022/09/21 06:25:06;;;;;;;7.07;3.58;;;7.70;81.10;;;5.92;100.00;96836.44;4971180;28;20081;-65
2022/09/21 06:27:32;;;;;;;6.32;3.30;;;7.90;81.40;;;5.99;100.00;96838.34;4983583;28;20033;-61
2022/09/21 06:29:58;;;;;;;6.43;3.60;;;8.00;81.40;;;6.05;100.00;96827.31;4970723;28;20383;-61
2022/09/21 06:32:23;;;;;;;6.03;4.00;;;8.00;81.40;;;6.11;100.00;96831.16;4965163;28;20051;-63
2022/09/21 06:34:49;;;;;;;6.70;4.35;;;8.10;81.30;;;6.20;100.00;96834.72;4987342;28;20095;-64
2022/09/21 06:37:15;;;;;;;9.30;3.60;;;8.20;81.10;;;6.28;100.00;96838.22;4983689;28;20522;-62
2022/09/21 06:39:41;;;;;;;6.03;3.70;;;8.30;81.10;;;6.35;100.00;96841.13;4981256;28;20066;-64
2022/09/21 06:42:07;;;;;;;7.07;3.47;;;8.40;81.10;;;6.45;100.00;96844.50;4965960;28;20579;-63
2022/09/21 06:44:32;;;;;;;6.35;3.50;;;8.50;80.90;;;6.58;100.00;96846.78;4970257;28;20057;-64
2022/09/21 06:46:58;;;;;;;6.45;3.72;;;8.70;80.90;;;6.67;100.00;96849.34;4989931;28;20050;-64
2022/09/21 06:49:27;;;;;;;6.47;3.63;;;8.80;80.40;;;6.81;100.00;96841.97;4969741;28;20026;-66
2022/09/21 06:51:53;;;;;;;6.05;4.10;;;9.00;80.60;;;6.96;100.00;96840.47;4980177;28;20031;-64
2022/09/21 06:54:19;;;;;;;6.38;3.90;;;9.20;80.60;;;7.09;100.00;96843.56;4973624;28;20037;-63
2022/09/21 06:56:45;;;;;;;7.93;3.95;;;9.30;80.40;;;7.23;100.00;96842.19;4975502;28;20038;-69
2022/09/21 06:59:11;;;;;;;5.28;3.53;;;9.50;80.20;;;7.41;100.00;96839.59;4949952;28;20035;-63
2022/09/21 07:01:36;;;;;;;5.38;3.53;;;9.70;80.20;;;7.59;100.00;96843.00;4967659;28;20035;-65
2022/09/21 07:04:02;;;;;;;6.70;3.50;;;10.10;79.10;;;7.71;100.00;96827.88;4967461;28;20043;-65
2022/09/21 07:06:28;;;;;;;6.30;3.65;;;10.30;78.90;;;8.02;100.00;96839.53;5010730;28;20096;-65
2022/09/21 07:08:54;;;;;;;5.13;3.50;;;10.50;77.40;;;8.25;100.00;96837.22;5006179;28;20504;-65
2022/09/21 07:11:22;;;;;;;4.63;3.70;;;10.80;77.50;;;8.47;100.00;96834.06;4949392;28;20073;-67
2022/09/21 07:13:48;;;;;;;4.95;3.28;;;11.10;76.40;;;8.77;100.00;96839.75;4952309;28;20387;-63
2022/09/21 07:16:14;;;;;;;5.38;3.65;;;11.50;75.10;;;9.01;100.00;96839.81;4984263;28;20039;-64
2022/09/21 07:18:40;;;;;;;5.80;3.70;;;11.70;74.60;;;9.28;100.00;96840.50;4982419;28;20158;-62
2022/09/21 07:21:08;;;;;;;5.97;3.38;;;12.00;72.80;;;9.56;100.00;96839.22;4966353;28;20035;-63
2022/09/21 07:23:33;;;;;;;4.40;3.53;;;12.50;72.40;;;9.86;100.00;96850.84;4950491;28;20035;-64
2022/09/21 07:26:08;;;;;;;9.05;3.50;;;12.80;71.00;;;10.16;100.00;96844.06;5011662;28;20397;-63
2022/09/21 07:28:34;;;;;;;5.30;3.33;;;13.30;69.30;;;10.45;100.00;96840.91;4990780;28;20513;-65
2022/09/21 07:31:14;;;;;;;4.70;3.33;;;13.80;68.10;;;10.79;100.00;96837.97;4962561;28;20050;-64
2022/09/21 07:33:41;;;;;;;5.35;3.40;;;14.40;66.00;;;11.11;100.00;96833.53;4965076;28;20058;-63
2022/09/21 07:36:09;;;;;;;5.03;2.90;;;14.90;63.80;;;11.45;100.00;96839.19;4992556;28;20525;-63
2022/09/21 07:38:38;;;;;;;5.40;3.08;;;15.60;60.80;;;11.75;100.00;96844.56;4934461;28;20042;-63
2022/09/21 07:41:03;;;;;;;4.00;3.20;;;16.20;59.50;;;12.10;100.00;96849.22;4964475;28;20081;-63
2022/09/21 07:43:29;;;;;;;5.40;3.20;;;16.90;57.90;;;12.43;100.00;96848.88;4980653;28;20055;-63
2022/09/21 07:45:55;;;;;;;5.43;3.20;;;17.50;55.50;;;12.77;100.00;96845.69;4985596;28;20180;-65
2022/09/21 07:48:21;;;;;;;4.70;3.17;;;18.20;53.90;;;13.15;100.00;96844.53;4965130;28;20050;-65
2022/09/21 07:50:48;;;;;;;4.53;2.83;;;18.90;52.00;;;13.46;100.00;96841.59;4964529;28;20039;-67
2022/09/21 07:53:15;;;;;;;4.40;3.05;;;19.40;49.40;;;13.82;100.00;96834.63;4968923;28;20038;-64
2022/09/21 07:55:40;;;;;;;5.63;4.45;;;20.00;48.00;;;14.14;97.82;96838.50;4984022;28;20444;-65
2022/09/21 08:00:51;;;;;;;5.25;1.98;;;21.00;44.30;;;14.90;94.02;96842.00;4961595;28;20050;-62
2022/09/21 08:03:17;;;;;;;3.88;2.10;;;21.40;43.40;;;15.25;90.59;96835.63;4961525;28;20116;-66
2022/09/21 08:05:43;;;;;;;3.03;1.70;;;21.80;41.70;;;15.60;88.49;96831.00;4968752;28;20460;-66
2022/09/21 08:08:08;;;;;;;4.80;2.30;;;22.10;41.40;;;15.96;86.20;96844.91;4992304;28;20525;-65
2022/09/21 08:10:34;;;;;;;4.53;2.20;;;22.50;40.40;;;16.26;85.15;96843.44;4980164;28;20046;-74
2022/09/21 08:13:00;;;;;;;2.95;1.80;;;22.70;40.20;;;16.64;83.61;96832.16;4979270;28;20031;-63
2022/09/21 08:15:26;;;;;;;3.90;1.55;;;23.20;39.40;;;16.98;82.05;96839.84;4992158;28;20042;-65
2022/09/21 08:17:53;;;;;;;3.97;1.60;;;23.60;38.50;;;17.33;79.66;96836.78;4967403;28;20050;-62
2022/09/21 08:20:20;;;;;;;3.88;1.90;;;23.80;37.30;;;17.61;78.82;96839.06;4995107;28;20040;-62
2022/09/21 08:22:46;;;;;;;3.25;1.85;;;24.00;38.00;;;17.88;76.77;96837.06;4966259;28;20374;-63
2022/09/21 08:25:12;;;;;;;4.40;1.95;;;24.20;37.20;;;18.16;75.18;96841.97;4966064;28;20042;-62
2022/09/21 08:27:39;;;;;;;3.33;1.70;;;24.50;37.50;;;18.38;73.08;96840.53;4966465;28;20113;-62
2022/09/21 08:30:06;;;;;;;4.95;2.00;;;24.60;35.60;;;18.53;71.81;96832.16;4972611;28;20608;-64
2022/09/21 08:32:32;;;;;;;4.20;1.85;;;24.60;35.70;;;18.76;70.75;96834.22;4959594;28;20529;-64
2022/09/21 08:34:58;;;;;;;6.75;2.03;;;24.90;36.10;;;18.98;70.03;96838.88;4964673;28;20064;-64
2022/09/21 08:37:24;;;;;;;2.97;1.77;;;24.90;36.20;;;19.15;68.77;96835.59;4988602;28;20506;-64
2022/09/21 08:39:49;;;;;;;3.30;1.50;;;25.10;35.40;;;19.31;67.36;96834.97;4977725;28;20041;-66
2022/09/21 08:42:52;;;;;;;2.72;1.55;;;25.30;34.80;;;19.53;62.35;96835.28;4980276;28;20077;-68
2022/09/21 08:45:18;;;;;;;3.67;1.63;;;25.10;35.80;;;19.71;66.26;96834.44;4968258;28;20071;-63
2022/09/21 08:47:47;;;;;;;2.08;1.40;;;25.00;36.20;;;19.88;63.77;96830.88;4953028;28;20447;-67
2022/09/21 08:50:30;;;;;;;6.20;1.80;;;25.10;35.00;;;19.97;57.25;96834.03;4979689;28;20026;-68
2022/09/21 08:53:18;;;;;;;6.53;5.28;;;25.10;34.10;;;20.02;58.79;96836.81;4968158;28;20120;-71
2022/09/21 08:55:44;;;;;;;2.78;1.88;;;25.00;35.20;;;20.21;62.84;96831.38;4998938;28;20036;-67
2022/09/21 08:58:21;;;;;;;3.55;1.58;;;25.20;35.70;;;20.35;57.26;96840.78;4976270;28;20049;-66
2022/09/21 09:00:46;;;;;;;3.75;1.17;;;25.10;35.10;;;20.52;61.28;96843.59;4999845;28;20053;-69
2022/09/21 09:03:25;;;;;;;2.58;1.40;;;25.30;35.50;;;20.70;57.55;96843.47;4949204;28;20038;-66
2022/09/21 09:06:01;;;;;;;2.00;1.10;;;25.40;35.30;;;20.89;54.56;96828.09;4933214;28;20038;-66
2022/09/21 09:09:09;;;;;;;2.80;1.23;;;25.40;34.00;;;21.04;53.59;96831.06;4987125;28;20031;-64
2022/09/21 09:11:42;;;;;;;3.03;1.60;;;25.20;33.70;;;21.17;57.08;96830.78;4966930;28;20038;-67
2022/09/21 09:14:43;;;;;;;4.22;1.40;;;25.30;34.50;;;21.32;52.93;96836.50;4966662;28;20039;-68
2022/09/21 09:18:07;;;;;;;2.15;1.30;;;25.40;34.70;;;21.52;50.91;96819.19;4964223;28;20058;-66
2022/09/21 09:20:56;;;;;;;2.40;1.30;;;25.40;33.30;;;21.74;52.44;96824.66;4959145;28;20072;-66
2022/09/21 09:23:53;;;;;;;2.13;1.20;;;25.60;34.80;;;21.86;48.07;96812.78;4981949;28;20046;-71
2022/09/21 09:26:34;;;;;;;2.85;1.30;;;25.30;32.30;;;22.16;50.73;96815.16;4984530;28;20047;-68
2022/09/21 09:29:13;;;;;;;2.67;1.30;;;25.70;34.00;;;22.45;48.90;96815.06;4938508;28;20080;-68
2022/09/21 09:31:38;;;;;;;4.28;1.80;;;26.10;33.30;;;22.59;51.36;96814.47;5058601;28;20039;-70
2022/09/21 09:34:27;;;;;;;9.07;7.43;;;26.20;32.00;;;22.75;46.90;96812.81;4939634;28;20035;-69
2022/09/21 09:36:57;;;;;;;3.90;2.03;;;26.40;32.20;;;22.86;47.45;96797.69;4947348;28;20106;-66
2022/09/21 09:39:23;;;;;;;2.65;1.55;;;26.60;31.40;;;22.80;50.06;96807.50;4985334;28;20060;-69
2022/09/21 09:42:23;;;;;;;2.28;1.33;;;26.50;32.60;;;23.10;45.90;96804.41;4986540;28;20068;-67
2022/09/21 09:45:24;;;;;;;1.98;1.00;;;27.30;31.30;;;23.43;45.82;96797.25;5012386;28;20051;-66
2022/09/21 09:48:21;;;;;;;4.32;0.98;;;28.30;30.30;;;23.73;44.29;96792.19;4978657;28;20053;-66
2022/09/21 09:50:46;;;;;;;2.20;0.80;;;28.80;28.30;;;23.92;48.00;96800.66;4958381;28;20031;-63
2022/09/21 09:53:19;;;;;;;1.45;0.60;;;29.90;27.60;;;24.32;44.61;96789.44;5004755;28;20438;-74
2022/09/21 09:55:49;;;;;;;1.45;0.68;;;30.90;25.90;;;24.93;47.22;96788.94;4955917;28;20147;-62
2022/09/21 09:58:53;;;;;;;2.17;0.88;;;32.00;24.20;;;25.74;40.91;96780.28;4942113;28;20042;-67
2022/09/21 10:01:45;;;;;;;2.72;0.70;;;33.10;23.80;;;26.50;39.35;96781.06;4959996;28;20051;-73
2022/09/21 10:04:16;;;;;;;1.67;0.60;;;33.40;23.10;;;26.59;39.89;96778.63;4961164;28;20039;-73
2022/09/21 10:06:42;;;;;;;2.15;0.60;;;32.80;23.80;;;27.00;43.66;96773.91;4988171;28;20036;-72
2022/09/21 10:09:31;;;;;;;0.90;0.43;;;34.30;22.40;;;27.53;36.25;96765.22;4970911;28;20042;-71
2022/09/21 10:12:00;;;;;;;0.68;0.55;;;35.60;20.60;;;28.08;39.03;96758.59;5001001;28;20040;-66
2022/09/21 10:14:30;;;;;;;1.90;0.43;;;36.20;19.80;;;28.56;38.08;96769.53;4979075;28;20036;-67
2022/09/21 10:16:56;;;;;;;1.23;0.40;;;37.00;19.10;;;28.92;40.06;96764.50;4948714;28;20402;-65
2022/09/21 10:19:24;;;;;;;1.63;0.40;;;37.30;18.00;;;29.41;37.51;96760.59;5005925;28;20031;-64
2022/09/21 10:21:56;;;;;;;2.10;0.50;;;37.90;17.70;;;29.92;33.16;96749.81;5005571;28;20447;-65
2022/09/21 10:24:25;;;;;;;0.95;0.50;;;38.50;17.80;;;30.29;34.15;96750.81;4973113;28;20039;-69
2022/09/21 10:27:01;;;;;;;1.60;0.57;;;38.50;17.60;;;30.69;31.86;96746.56;4946912;28;20561;-69
2022/09/21 10:29:40;;;;;;;1.13;0.40;;;38.70;17.60;;;31.11;30.92;96747.31;5000713;28;20035;-69
2022/09/21 10:32:12;;;;;;;0.73;0.40;;;38.80;16.90;;;31.42;29.78;96742.84;4994154;28;20044;-70
2022/09/21 10:34:39;;;;;;;2.15;0.40;;;39.00;17.40;;;31.73;33.32;96736.72;4991844;28;20115;-73
2022/09/21 10:37:32;;;;;;;1.10;0.45;;;39.00;16.80;;;31.80;27.64;96732.44;4967684;28;20049;-74
2022/09/21 10:39:58;;;;;;;2.10;0.60;;;36.60;18.40;;;31.49;32.19;96735.06;4993322;28;20065;-72
2022/09/21 10:42:24;;;;;;;0.80;0.45;;;36.60;18.60;;;31.62;31.00;96736.13;5029381;28;20195;-70
2022/09/21 10:45:15;;;;;;;1.05;0.38;;;36.50;17.90;;;31.38;27.36;96730.97;5014175;28;20064;-71
2022/09/21 10:47:49;;;;;;;0.95;0.43;;;36.70;17.60;;;31.06;28.98;96740.91;4976713;28;20039;-65